Latest METARs, TAFs and NOTAMs for SEGU


---------------------------------------------------------------------------
	(OBSERVATIONS)
SEGU 171200Z 19005KT 9999 BKN033 BKN100 24/21 Q1011 NOSIG RMK
    A2987=
SEGU 171100Z 20005KT 9999 BKN030 BKN100 24/20 Q1011 NOSIG RMK
    A2986=
SEGU 171000Z 22008KT 9999 BKN030 BKN100 24/21 Q1010 NOSIG RMK
    A2984=
---------------------------------------------------------------------------
	(TERMINAL AREA FORECAST)
SEGU 170930Z 1712/1812 20005KT 9999 SCT026 BKN100
    BECMG 1715/1716 FEW030 SCT100
    BECMG 1717/1718 12006KT
    BECMG 1722/1723 20012KT
    FM180700 22006KT 9999 BKN023 BKN090 TX31/1720Z TN23/1809Z=
---------------------------------------------------------------------------
	(NOTAMS)


SEGU A0055/09 APN NORTE CLSD POR INCIDENTE DE ACFT 27 JAN 05:30
    UNTIL 27 JAN 18:00 ESTIMATED

SEGU A1463/06 COMBUSTIBLE JET A-1 RESTRINGIDO 20 POR CIENTO 26
    DEC 20:45 2006 UNTIL 04 JAN 23:00 ESTIMATED

SEGU A1580/18 LAUNCH OF BALLOONS WITH PROBE WILL TAKE PLACE FM
    STN GUAYAQUIL COORD 021618S 0795414W VSP 10 - 13FT/SEC HGT
    OF PROBING 83000FT. CTN. SFC - UNL, MON, WED AND FRI 1015-1215,
    22 OCT 10:15 2018 UNTIL 18 JAN 12:15 2019. CREATED: 19 OCT
    17:23 2018

SEGU A1806/18 IN GREEN AREAS MOV AREA WIP, SUBJ TFC. CTN. 20
    NOV 18:00 2018 UNTIL 21 FEB 04:59 2019. CREATED: 20 NOV 17:52
    2018

SEGU A1807/18 IN MOV AREA WIP SUBJ TFC. CTN. 20 NOV 18:00 2018
    UNTIL 21 FEB 04:59 2019. CREATED: 20 NOV 17:58 2018

---------------------------------------------------------------------------